Lagrange, ME

4:13 PM EDT on August 27, 2015 (GMT -0400)
Main St. Milo | | Change Station
CLOSE
Current Station
Personal Weather Station
Location: Milo, ME
Elevation: 300 ft
Nearby Weather Stations

Elev 300 ft 45.25 °N, 68.99 °W | Updated 48 seconds ago

Overcast
Overcast
64.4 °F
Feels Like 64.4 °F
N
2.0
Wind Variable Wind from WSW
Gusts 2.5 mph

Today
High -- | Low -- °F
--% Chance of Precip.
Yesterday
High -- | Low -- °F
Precip. -- in
5:50 AM 7:22 PM
Waxing Gibbous, 95% visible
Pressure 29.90 in
Visibility 10.0 miles
Clouds Scattered Clouds 4500 ft
Mostly Cloudy 10000 ft
Dew Point 60 °F
Humidity 84%
Rainfall 0.00 in
Snow Depth Not available.
UV 2.0 out of 12
Pollen 7.20 out of 12
Air Quality Not available.
Flu Activity Not available.
METAR KBGR 271953Z 24007KT 10SM SCT045 BKN100 23/14 A2990 RMK AO2 SLP123 MDT CU ALQDS T02280144
Pressure 29.90 in
Visibility 10.0 miles
Clouds Scattered Clouds 4500 ft
Mostly Cloudy 10000 ft
Dew Point 60 °F
Humidity 84%
Rainfall 0.00 in
Snow Depth Not available.
UV 2.0 out of 12
Pollen 7.20 out of 12
Air Quality Not available.
Flu Activity Not available.
METAR KBGR 271953Z 24007KT 10SM SCT045 BKN100 23/14 A2990 RMK AO2 SLP123 MDT CU ALQDS T02280144

10-Day Weather Forecast

×

Almanac

Astronomy

Aug. 27, 2015 Rise Set
Actual Time
Civil Twilight
Nautical Twilight
Astronomical Twilight
Moon
Length of Visible Light
Length of Day
Tomorrow will be .
, % of the Moon is Illuminated

Today's Extremes

State Highs State Lows

Community

WunderPhotos

Upload Photos

1,850,206 photos uploaded!

WunderBlogs® & News

Nearby

Air Quality

  Air Quality AQ Index Pollutant
Not available.

Snow Depth

Station Depth Elevation

Earthquake Activity

City Distance Mag. Time & Date
Minimum magnitude displayed is 2.5.

Coastal Water Temperatures

Place Temperature

Stations

Nearby Weather Stations

Station Location Temp. Windchill Dew Point Humidity Wind Precip. Elev Updated Type